Time;durP1;ratioP1;P1;durP2;ratioP2;P2;SDS_P1;SDS_P2;PMS_P1;PMS_P2;Temp;Humidity;BMP_temperature;BMP_pressure;BME280_temperature;BME280_humidity;BME280_pressure;Samples;Min_cycle;Max_cycle;Signal;HPM_P1;HPM_P2
2021/12/29 00:00:41;;;;;;;28.38;23.70;;;;;;;7.05;84.14;100449.94;4947653;29;20055;-86
2021/12/29 00:03:09;;;;;;;31.27;23.65;;;;;;;7.06;83.64;100446.34;4947948;29;20055;-85
2021/12/29 00:05:36;;;;;;;27.23;22.35;;;;;;;6.60;83.64;100370.69;4947895;29;20407;-88
2021/12/29 00:08:05;;;;;;;28.77;23.73;;;;;;;6.60;83.85;100369.84;4947625;29;20067;-86
2021/12/29 00:10:32;;;;;;;31.73;23.20;;;;;;;6.97;83.93;100433.84;4947971;29;20710;-85
2021/12/29 00:12:59;;;;;;;27.95;22.10;;;;;;;6.96;84.12;100433.97;4973385;28;20123;-89
2021/12/29 00:15:27;;;;;;;27.98;21.50;;;;;;;6.90;83.99;100431.81;4967741;28;20062;-91
2021/12/29 00:17:56;;;;;;;29.55;23.17;;;;;;;6.78;84.52;100400.09;4972468;28;20058;-91
2021/12/29 00:20:28;;;;;;;28.35;21.15;;;;;;;6.96;84.65;100429.50;4972063;28;20087;-89
2021/12/29 00:23:02;;;;;;;27.33;20.88;;;;;;;5.98;84.41;100271.66;4968989;29;20051;-87
2021/12/29 00:25:30;;;;;;;24.50;19.95;;;;;;;7.01;84.44;100442.34;4980876;28;20119;-86
2021/12/29 00:27:59;;;;;;;28.88;20.40;;;;;;;5.79;84.05;100247.59;4975674;28;20680;-86
2021/12/29 00:30:27;;;;;;;26.02;20.88;;;;;;;5.48;83.42;100175.31;4951998;29;20071;-87
2021/12/29 00:32:56;;;;;;;25.23;20.67;;;;;;;5.91;84.14;100256.38;4951464;28;20082;-85
2021/12/29 00:35:23;;;;;;;22.25;18.20;;;;;;;6.07;84.00;100283.31;4965577;28;20083;-88
2021/12/29 00:37:50;;;;;;;24.30;18.42;;;;;;;7.23;83.64;100467.94;4949284;29;20118;-88
2021/12/29 00:40:17;;;;;;;24.95;17.95;;;;;;;6.29;83.70;100313.31;4948293;28;20055;-87
2021/12/29 00:42:44;;;;;;;21.55;18.00;;;;;;;6.05;84.06;100271.22;4947320;29;20567;-85
2021/12/29 00:45:11;;;;;;;23.63;17.83;;;;;;;6.50;83.40;100353.88;4947632;29;20555;-85
2021/12/29 00:47:38;;;;;;;21.20;18.40;;;;;;;6.46;83.35;100352.44;4948784;28;20043;-86
2021/12/29 00:50:10;;;;;;;22.17;17.90;;;;;;;6.16;83.66;100301.03;4950755;29;20110;-86
2021/12/29 00:52:37;;;;;;;;;;;;;;;7.25;83.65;100472.16;4952562;28;20122;-86
2021/12/29 00:55:04;;;;;;;23.05;17.30;;;;;;;6.01;83.40;100267.94;4951917;28;19922;-86
2021/12/29 00:57:31;;;;;;;21.00;17.25;;;;;;;6.97;83.58;100425.09;4966468;28;20495;-84
2021/12/29 00:59:57;;;;;;;21.30;16.88;;;;;;;6.60;83.19;100356.63;4950806;29;20467;-86
2021/12/29 01:02:24;;;;;;;20.77;17.75;;;;;;;6.14;82.94;100288.94;4950483;29;20134;-86
2021/12/29 01:04:51;;;;;;;20.63;17.23;;;;;;;6.16;83.02;100308.13;4951228;28;20561;-84
2021/12/29 01:07:18;;;;;;;22.40;18.40;;;;;;;7.15;83.08;100475.63;4950369;29;20392;-86
2021/12/29 01:09:45;;;;;;;19.73;16.80;;;;;;;6.95;83.42;100433.13;4951637;28;20458;-85
2021/12/29 01:12:14;;;;;;;21.33;17.48;;;;;;;6.85;83.13;100422.44;4951273;28;20496;-87
2021/12/29 01:14:44;;;;;;;22.00;17.73;;;;;;;6.27;83.02;100328.41;4950200;29;20475;-85
2021/12/29 01:17:11;;;;;;;18.67;16.75;;;;;;;6.46;83.06;100357.72;4950464;29;20086;-84
2021/12/29 01:19:37;;;;;;;18.98;16.33;;;;;;;5.97;82.89;100277.03;4950241;29;20136;-85
2021/12/29 01:22:04;;;;;;;19.88;16.85;;;;;;;6.52;83.19;100383.59;4966556;28;20051;-86
2021/12/29 01:24:31;;;;;;;18.77;16.75;;;;;;;5.55;83.04;100214.22;4951610;28;20455;-86
2021/12/29 01:26:59;;;;;;;19.58;16.38;;;;;;;5.46;83.15;100195.63;4950474;29;20114;-88
2021/12/29 01:29:28;;;;;;;19.25;17.15;;;;;;;6.92;83.31;100440.41;4951272;28;20073;-87
2021/12/29 01:31:56;;;;;;;20.98;17.02;;;;;;;5.57;83.34;100233.38;4966119;28;20055;-86
2021/12/29 01:34:23;;;;;;;18.60;16.48;;;;;;;7.15;83.60;100486.19;4950021;29;20071;-86
2021/12/29 01:36:51;;;;;;;19.30;16.45;;;;;;;6.51;83.46;100389.00;4949617;29;20055;-86
2021/12/29 01:39:22;;;;;;;19.83;17.00;;;;;;;7.16;83.51;100472.00;4949933;29;20290;-86
2021/12/29 01:41:51;;;;;;;19.75;16.08;;;;;;;7.13;83.20;100466.97;4949666;29;20131;-88
2021/12/29 01:44:21;;;;;;;19.05;15.88;;;;;;;7.10;83.17;100464.59;4950246;29;20054;-85
2021/12/29 01:46:48;;;;;;;19.02;16.15;;;;;;;7.05;83.22;100468.41;4950018;29;20523;-87
2021/12/29 01:49:14;;;;;;;19.10;16.13;;;;;;;6.17;83.01;100318.56;4950289;29;20083;-87
2021/12/29 01:51:49;;;;;;;20.70;15.45;;;;;;;6.60;83.49;100407.63;4950154;29;20059;-86
2021/12/29 01:54:24;;;;;;;19.30;15.15;;;;;;;6.87;83.68;100450.47;4950366;29;20055;-87
2021/12/29 01:56:59;;;;;;;18.02;15.88;;;;;;;6.93;83.51;100460.59;4949922;29;20051;-85
2021/12/29 01:59:27;;;;;;;17.98;15.10;;;;;;;6.98;83.79;100459.28;4949770;28;20043;-86
2021/12/29 02:01:56;;;;;;;19.58;16.33;;;;;;;7.03;84.19;100462.41;4949614;29;20149;-86
2021/12/29 02:04:24;;;;;;;19.45;16.27;;;;;;;6.50;83.65;100377.59;4949457;29;20081;-87
2021/12/29 02:06:51;;;;;;;20.05;16.27;;;;;;;7.02;83.77;100468.66;4949701;29;20090;-86
2021/12/29 02:09:18;;;;;;;18.25;15.35;;;;;;;6.76;84.25;100431.03;4950944;28;20320;-88
2021/12/29 02:11:48;;;;;;;17.98;15.75;;;;;;;6.94;84.03;100457.84;4949446;29;20081;-85
2021/12/29 02:14:15;;;;;;;18.73;14.60;;;;;;;5.83;83.69;100285.13;4949419;29;20142;-88
2021/12/29 02:16:41;;;;;;;18.80;15.95;;;;;;;6.34;83.29;100366.53;4965541;28;20093;-88
2021/12/29 02:19:11;;;;;;;19.20;15.63;;;;;;;6.75;83.35;100455.75;4965910;28;20055;-88
2021/12/29 02:21:42;;;;;;;21.60;17.13;;;;;;;5.24;82.37;100205.13;4950524;28;20058;-87
2021/12/29 02:26:39;;;;;;;24.95;17.38;;;;;;;5.97;82.04;100356.06;4950702;28;20118;-84
2021/12/29 02:29:12;;;;;;;20.83;17.45;;;;;;;5.62;82.19;100301.53;4965334;28;20146;-87
2021/12/29 02:31:40;;;;;;;20.88;17.10;;;;;;;5.65;81.53;100306.56;4965407;28;20277;-87
2021/12/29 02:34:11;;;;;;;21.40;17.13;;;;;;;6.61;81.78;100448.84;4965488;28;20048;-86
2021/12/29 02:36:45;;;;;;;18.98;16.42;;;;;;;5.98;82.23;100349.88;4951389;28;20109;-87
2021/12/29 02:39:15;;;;;;;23.95;16.80;;;;;;;4.96;81.69;100197.56;4953732;28;20051;-88
2021/12/29 02:41:46;;;;;;;20.88;17.60;;;;;;;5.48;82.01;100296.41;4966894;28;20283;-86
2021/12/29 02:44:18;;;;;;;19.98;16.40;;;;;;;6.13;81.74;100401.44;4952090;28;20113;-87
2021/12/29 02:46:44;;;;;;;23.63;17.40;;;;;;;4.91;81.96;100203.97;4967678;28;20093;-85
2021/12/29 02:49:11;;;;;;;19.58;16.95;;;;;;;4.71;82.33;100189.63;4971848;28;20055;-87
2021/12/29 02:51:39;;;;;;;19.73;17.45;;;;;;;5.27;82.40;100270.72;4957452;28;20046;-90
2021/12/29 02:54:06;;;;;;;21.73;18.02;;;;;;;6.31;82.33;100444.06;4959151;28;20082;-86
2021/12/29 02:56:33;;;;;;;22.38;17.55;;;;;;;5.25;82.21;100275.22;4957405;28;20551;-87
2021/12/29 02:58:59;;;;;;;21.15;16.58;;;;;;;6.34;82.20;100443.00;4959490;28;20054;-89
2021/12/29 03:01:27;;;;;;;17.63;15.60;;;;;;;6.26;82.63;100450.63;4970170;28;20047;-89
2021/12/29 03:03:57;;;;;;;20.08;15.80;;;;;;;5.12;82.19;100275.28;4954275;28;20043;-85
2021/12/29 03:06:28;;;;;;;19.05;16.80;;;;;;;5.53;82.29;100352.22;4958982;28;20047;-85
2021/12/29 03:08:55;;;;;;;19.80;16.35;;;;;;;6.24;82.41;100466.56;4956198;28;20217;-85
2021/12/29 03:11:24;;;;;;;18.52;15.38;;;;;;;6.13;82.15;100456.78;4954428;28;20392;-84
2021/12/29 03:13:51;;;;;;;19.35;16.17;;;;;;;6.21;82.44;100472.03;4969278;28;20272;-90
2021/12/29 03:16:18;;;;;;;18.67;15.90;;;;;;;5.95;81.66;100439.69;4982159;28;20030;-90
2021/12/29 03:18:45;;;;;;;19.63;15.85;;;;;;;5.96;81.96;100451.91;4964918;28;20061;-87
2021/12/29 03:21:12;;;;;;;21.95;15.55;;;;;;;6.03;82.28;100461.06;4958531;28;20059;-84
2021/12/29 03:23:39;;;;;;;18.50;15.52;;;;;;;5.52;82.27;100393.50;4974401;28;20053;-86
2021/12/29 03:26:08;;;;;;;18.42;15.50;;;;;;;5.71;82.60;100429.91;4957140;28;20153;-85
2021/12/29 03:28:37;;;;;;;19.95;15.70;;;;;;;5.29;83.31;100371.47;4959614;28;20039;-87
2021/12/29 03:31:11;;;;;;;19.27;15.18;;;;;;;5.73;83.32;100464.91;4956261;28;20527;-88
2021/12/29 03:33:38;;;;;;;19.05;15.52;;;;;;;5.47;83.72;100421.13;4958391;28;20054;-87
2021/12/29 03:36:07;;;;;;;17.42;14.68;;;;;;;5.78;84.03;100478.59;4952741;28;20162;-88
2021/12/29 03:38:37;;;;;;;17.17;14.68;;;;;;;5.62;84.15;100440.28;4955887;28;20050;-86
2021/12/29 03:41:06;;;;;;;16.98;13.10;;;;;;;5.30;83.71;100382.81;4959217;28;20055;-86
2021/12/29 03:43:34;;;;;;;19.27;13.77;;;;;;;5.62;83.56;100451.63;4955850;28;20051;-86
2021/12/29 03:46:03;;;;;;;17.23;14.05;;;;;;;5.43;83.24;100440.72;4972475;28;20125;-85
2021/12/29 03:48:31;;;;;;;16.00;13.40;;;;;;;5.71;83.55;100479.97;4959510;28;20049;-86
2021/12/29 03:51:00;;;;;;;16.58;13.48;;;;;;;5.39;84.03;100434.84;4956855;28;20603;-87
2021/12/29 03:53:27;;;;;;;17.27;13.50;;;;;;;5.40;83.94;100430.41;4955827;28;20074;-86
2021/12/29 03:55:54;;;;;;;15.88;13.43;;;;;;;5.29;84.30;100423.25;4956457;28;20053;-85
2021/12/29 03:58:22;;;;;;;16.50;14.20;;;;;;;5.55;84.10;100477.56;4958319;28;20054;-85
2021/12/29 04:00:51;;;;;;;15.40;13.38;;;;;;;4.09;83.87;100204.50;4957517;28;20078;-88
2021/12/29 04:03:18;;;;;;;19.67;14.27;;;;;;;4.37;83.86;100250.75;4972542;28;20391;-89
2021/12/29 04:05:46;;;;;;;16.17;14.07;;;;;;;5.47;84.03;100436.94;4958621;28;20051;-85
2021/12/29 04:08:13;;;;;;;18.58;14.52;;;;;;;5.61;83.98;100465.78;4955751;28;20133;-86
2021/12/29 04:10:39;;;;;;;20.00;15.23;;;;;;;5.44;83.50;100439.78;4950604;28;20053;-85
2021/12/29 04:13:06;;;;;;;16.90;14.75;;;;;;;5.73;83.70;100490.41;4970807;28;20042;-88
2021/12/29 04:15:33;;;;;;;16.92;14.77;;;;;;;5.31;82.83;100416.91;4957678;28;20499;-88
2021/12/29 04:18:03;;;;;;;18.38;14.55;;;;;;;5.66;82.78;100495.25;4953983;28;20039;-86
2021/12/29 04:23:19;;;;;;;16.20;13.65;;;;;;;5.47;82.42;100482.53;4953829;28;20476;-87
2021/12/29 04:25:49;;;;;;;16.40;13.95;;;;;;;5.57;82.34;100501.16;4961783;28;20055;-88
2021/12/29 04:28:20;;;;;;;15.85;12.85;;;;;;;5.30;81.97;100467.91;4977816;28;20122;-86
2021/12/29 04:30:48;;;;;;;18.33;13.85;;;;;;;5.39;82.32;100508.56;4958048;28;20118;-86
2021/12/29 04:33:15;;;;;;;17.63;14.40;;;;;;;5.12;82.51;100479.66;4957349;28;20055;-86
2021/12/29 04:35:42;;;;;;;18.05;14.52;;;;;;;4.48;82.78;100375.25;4960600;28;20083;-87
2021/12/29 04:38:09;;;;;;;19.25;14.43;;;;;;;4.74;82.39;100406.84;4961658;28;20082;-86
2021/12/29 04:40:35;;;;;;;16.10;14.43;;;;;;;4.59;82.45;100392.09;4962298;28;20375;-84
2021/12/29 04:43:05;;;;;;;15.43;13.77;;;;;;;4.51;81.94;100400.47;4964941;28;20124;-86
2021/12/29 04:45:34;;;;;;;15.82;13.48;;;;;;;3.34;82.32;100213.81;4986781;28;20464;-86
2021/12/29 04:48:01;;;;;;;15.25;13.48;;;;;;;5.18;83.54;100510.84;4971089;28;20050;-85
2021/12/29 04:50:36;;;;;;;16.98;14.00;;;;;;;4.69;83.14;100430.81;4970126;28;20054;-86
2021/12/29 04:53:06;;;;;;;15.10;13.43;;;;;;;4.96;83.57;100484.31;4973913;28;20718;-86
2021/12/29 04:55:33;;;;;;;15.70;13.23;;;;;;;4.80;83.03;100480.06;4973638;28;20110;-86
2021/12/29 04:58:03;;;;;;;15.32;13.15;;;;;;;4.45;82.99;100417.50;4970342;28;20058;-85
2021/12/29 05:00:31;;;;;;;16.30;13.40;;;;;;;5.08;83.24;100509.78;4985815;28;20581;-86
2021/12/29 05:02:59;;;;;;;16.17;14.02;;;;;;;4.89;83.46;100487.34;4971347;28;20109;-84
2021/12/29 05:10:46;;;;;;;16.10;12.57;;;;;;;4.63;83.67;100440.88;4952497;28;20572;-85
2021/12/29 05:13:14;;;;;;;20.52;14.45;;;;;;;4.26;84.20;100359.22;4948918;29;20483;-85
2021/12/29 05:15:41;;;;;;;16.52;14.05;;;;;;;4.98;84.40;100475.38;4948509;29;20158;-86
2021/12/29 05:18:08;;;;;;;15.80;14.10;;;;;;;5.30;84.13;100501.28;4965019;28;20054;-85
2021/12/29 05:20:54;;;;;;;16.83;14.77;;;;;;;5.09;83.25;100456.19;4950016;28;20495;-84
2021/12/29 05:23:21;;;;;;;16.45;14.63;;;;;;;5.48;82.97;100528.94;4949172;29;20083;-84
2021/12/29 05:25:49;;;;;;;15.63;13.80;;;;;;;5.06;82.35;100503.78;4965529;28;20509;-85
2021/12/29 05:28:19;;;;;;;17.67;14.18;;;;;;;4.29;82.39;100387.91;4966273;28;20058;-86
2021/12/29 05:30:47;;;;;;;17.33;14.95;;;;;;;5.14;82.41;100530.41;4964987;28;20117;-86
2021/12/29 05:33:15;;;;;;;16.33;14.20;;;;;;;3.80;82.18;100307.94;4961639;28;20513;-85
2021/12/29 05:35:42;;;;;;;16.52;14.13;;;;;;;4.56;81.63;100447.50;4949815;28;20668;-87
2021/12/29 05:38:09;;;;;;;16.50;14.20;;;;;;;4.41;82.08;100431.78;4950565;28;20062;-85
2021/12/29 05:40:38;;;;;;;14.63;13.13;;;;;;;4.11;82.33;100392.63;4950314;28;20146;-86
2021/12/29 05:43:07;;;;;;;15.40;13.48;;;;;;;4.45;81.99;100442.97;4965711;28;20179;-85
2021/12/29 05:45:34;;;;;;;16.35;14.15;;;;;;;3.68;81.92;100342.03;4949468;29;20611;-87
2021/12/29 05:48:01;;;;;;;17.90;14.07;;;;;;;3.29;82.58;100301.63;4965571;28;20102;-85
2021/12/29 05:50:30;;;;;;;14.25;12.75;;;;;;;4.33;83.01;100470.88;4951557;29;20055;-87
2021/12/29 05:52:58;;;;;;;17.35;14.80;;;;;;;4.26;83.29;100465.19;4949430;29;20432;-87
2021/12/29 05:55:26;;;;;;;17.65;14.70;;;;;;;3.14;83.97;100296.41;4949972;29;20102;-88
2021/12/29 05:57:53;;;;;;;17.00;15.20;;;;;;;3.90;83.49;100426.34;4949175;29;20055;-88
2021/12/29 06:00:24;;;;;;;18.63;15.18;;;;;;;3.02;83.44;100270.13;4950310;28;20061;-85
2021/12/29 06:02:51;;;;;;;16.15;13.75;;;;;;;3.56;84.16;100359.41;4950435;28;20460;-87
2021/12/29 06:05:19;;;;;;;16.63;14.07;;;;;;;4.92;83.81;100578.34;4949581;28;20055;-88
2021/12/29 06:07:46;;;;;;;17.42;13.63;;;;;;;4.38;84.12;100468.81;4963780;28;20047;-87
2021/12/29 06:10:13;;;;;;;16.35;13.90;;;;;;;4.97;84.59;100557.00;4947710;29;20061;-87
2021/12/29 06:12:40;;;;;;;20.33;14.05;;;;;;;4.40;84.60;100448.53;4963720;28;20513;-90
2021/12/29 06:15:08;;;;;;;20.27;12.93;;;;;;;4.84;84.64;100518.38;4963596;28;20058;-86
2021/12/29 06:17:35;;;;;;;16.15;13.65;;;;;;;4.50;84.38;100464.53;4963788;28;20062;-86
2021/12/29 06:20:03;;;;;;;19.67;13.82;;;;;;;5.07;84.74;100555.44;4949563;28;20054;-86
2021/12/29 06:22:30;;;;;;;16.45;14.75;;;;;;;4.01;84.51;100375.78;4964561;28;20062;-88
2021/12/29 06:24:57;;;;;;;17.95;14.93;;;;;;;4.93;84.45;100530.91;4964597;28;20075;-86
2021/12/29 06:27:26;;;;;;;18.10;14.35;;;;;;;4.21;84.30;100419.13;4964701;28;20114;-86
2021/12/29 06:29:53;;;;;;;18.30;16.38;;;;;;;4.72;84.44;100479.72;4964364;28;20167;-88
2021/12/29 06:32:20;;;;;;;22.13;18.15;;;;;;;4.00;84.35;100338.13;4950152;28;20133;-86
2021/12/29 06:34:47;;;;;;;21.95;16.30;;;;;;;3.84;83.79;100313.84;4965452;28;20233;-88
2021/12/29 06:37:16;;;;;;;21.50;17.27;;;;;;;4.35;84.11;100390.16;4968626;28;20089;-90
2021/12/29 06:39:45;;;;;;;18.95;15.52;;;;;;;3.72;83.96;100291.84;4974704;28;20077;-90
2021/12/29 06:42:15;;;;;;;21.15;18.88;;;;;;;4.39;83.81;100372.38;4965535;28;20044;-86
2021/12/29 06:44:43;;;;;;;16.15;14.50;;;;;;;4.78;83.31;100455.66;4949483;28;20113;-86
2021/12/29 06:47:10;;;;;;;16.00;13.90;;;;;;;4.98;83.64;100493.78;4964573;28;20081;-87
2021/12/29 06:49:37;;;;;;;17.05;14.07;;;;;;;4.35;83.60;100398.03;4965127;28;20113;-87
2021/12/29 06:52:04;;;;;;;16.02;14.20;;;;;;;5.52;83.59;100593.63;4964890;28;20133;-85
2021/12/29 06:54:32;;;;;;;16.10;13.02;;;;;;;5.47;83.56;100608.91;4949931;28;20475;-86
2021/12/29 06:56:59;;;;;;;15.48;12.68;;;;;;;5.26;83.62;100573.50;4948210;29;20082;-87
2021/12/29 06:59:26;;;;;;;14.75;12.98;;;;;;;5.43;84.17;100603.94;4964312;28;20126;-86
2021/12/29 07:01:52;;;;;;;16.55;13.88;;;;;;;5.13;84.35;100547.16;4949681;28;20047;-86
2021/12/29 07:04:22;;;;;;;15.25;13.27;;;;;;;4.41;84.62;100434.41;4950000;28;20066;-86
2021/12/29 07:06:50;;;;;;;13.93;12.27;;;;;;;4.80;84.32;100501.09;4966115;28;20111;-86
2021/12/29 07:09:18;;;;;;;13.73;12.32;;;;;;;3.92;84.34;100356.19;4952075;28;20063;-86
2021/12/29 07:11:46;;;;;;;18.80;13.52;;;;;;;3.98;84.48;100370.69;4949450;28;20051;-84
2021/12/29 07:14:13;;;;;;;14.18;12.60;;;;;;;5.63;84.80;100613.13;4963743;28;20086;-85
2021/12/29 07:16:44;;;;;;;15.23;13.73;;;;;;;4.59;84.62;100418.41;4947922;29;20086;-83
2021/12/29 07:19:11;;;;;;;17.83;13.02;;;;;;;4.50;83.54;100414.59;4948238;29;20619;-86
2021/12/29 07:21:38;;;;;;;14.23;12.20;;;;;;;3.88;83.45;100311.84;4949339;28;20059;-87
2021/12/29 07:24:06;;;;;;;12.45;11.13;;;;;;;4.41;83.55;100404.69;4948526;29;20055;-85
2021/12/29 07:26:33;;;;;;;13.32;11.90;;;;;;;4.07;83.31;100359.59;4948051;29;20098;-87
2021/12/29 07:29:00;;;;;;;16.35;11.02;;;;;;;5.04;83.13;100513.56;4947735;29;20082;-86
2021/12/29 07:31:27;;;;;;;13.80;11.13;;;;;;;4.59;83.26;100444.69;4947490;29;20063;-86
2021/12/29 07:34:14;;;;;;;14.32;11.45;;;;;;;5.40;83.82;100454.09;4947815;29;20131;-87
2021/12/29 07:36:41;;;;;;;12.73;11.52;;;;;;;6.27;82.10;100513.78;4947864;28;20444;-87
2021/12/29 07:39:10;;;;;;;14.15;11.70;;;;;;;6.07;76.38;100494.16;4929627;29;20071;-87
2021/12/29 07:41:37;;;;;;;11.13;9.93;;;;;;;5.42;78.18;100374.06;4929372;29;20048;-86
2021/12/29 07:44:04;;;;;;;14.18;10.45;;;;;;;6.47;78.77;100488.59;4942969;29;20411;-84
2021/12/29 07:46:33;;;;;;;21.65;11.55;;;;;;;9.06;75.80;100636.78;4929550;29;20068;-88
2021/12/29 07:49:02;;;;;;;11.95;10.82;;;;;;;7.88;68.70;100551.81;4943234;29;20059;-87
2021/12/29 07:51:29;;;;;;;11.40;9.93;;;;;;;6.45;72.07;100495.78;4943013;29;20083;-84
2021/12/29 07:53:56;;;;;;;14.10;10.80;;;;;;;5.03;74.67;100396.13;4928459;29;20107;-84
2021/12/29 07:56:24;;;;;;;13.93;11.30;;;;;;;5.55;76.77;100582.88;4929793;29;20206;-85
2021/12/29 07:58:51;;;;;;;14.75;12.07;;;;;;;4.84;78.48;100555.19;4932364;29;20058;-87
2021/12/29 08:01:18;;;;;;;13.45;11.77;;;;;;;4.12;80.05;100483.63;4947479;29;20139;-85
2021/12/29 08:03:45;;;;;;;13.88;11.77;;;;;;;4.86;81.33;100642.75;4947751;29;20287;-85
2021/12/29 08:06:15;;;;;;;14.63;12.23;;;;;;;5.08;82.49;100715.03;4947863;29;20059;-87
2021/12/29 08:08:42;;;;;;;12.60;11.40;;;;;;;4.43;81.35;100592.06;4949004;29;20138;-85
2021/12/29 08:11:09;;;;;;;12.23;10.93;;;;;;;4.13;79.91;100563.31;4952051;28;20059;-87
2021/12/29 08:13:35;;;;;;;12.85;11.38;;;;;;;2.70;80.45;100390.91;4948869;28;20090;-84
2021/12/29 08:16:02;;;;;;;11.20;10.20;;;;;;;3.17;81.08;100498.22;4954376;28;20043;-88
2021/12/29 08:18:29;;;;;;;12.00;10.80;;;;;;;2.49;81.75;100393.03;4951382;28;20407;-87
2021/12/29 08:20:56;;;;;;;13.70;11.38;;;;;;;3.92;82.61;100637.22;4950951;29;20082;-86
2021/12/29 08:23:22;;;;;;;12.40;11.13;;;;;;;4.12;83.26;100678.03;4966354;28;20276;-85
2021/12/29 08:25:49;;;;;;;12.52;11.00;;;;;;;3.98;83.43;100681.53;4952134;28;20143;-84
2021/12/29 08:28:17;;;;;;;13.18;11.02;;;;;;;4.12;84.37;100687.72;4966683;28;20055;-84
2021/12/29 08:30:44;;;;;;;12.60;11.40;;;;;;;3.19;84.23;100530.44;4950774;29;20090;-87
2021/12/29 08:33:13;;;;;;;13.20;11.63;;;;;;;4.04;84.28;100681.13;4952417;28;20229;-84
2021/12/29 08:35:40;;;;;;;17.63;11.57;;;;;;;4.23;83.76;100701.06;4966726;28;20225;-85
2021/12/29 08:38:07;;;;;;;13.33;11.27;;;;;;;4.20;83.82;100681.06;4951272;28;20570;-85
2021/12/29 08:40:34;;;;;;;13.48;11.77;;;;;;;4.33;83.76;100696.91;4950769;29;20582;-85
2021/12/29 08:43:03;;;;;;;12.47;11.33;;;;;;;4.40;83.37;100706.13;4950612;29;20138;-85
2021/12/29 08:45:31;;;;;;;21.57;10.60;;;;;;;4.22;83.21;100683.56;4951887;28;20061;-88
2021/12/29 08:47:59;;;;;;;13.33;11.63;;;;;;;4.24;83.58;100708.81;4951681;28;20337;-85
2021/12/29 08:50:29;;;;;;;15.80;14.20;;;;;;;3.87;83.78;100643.69;4950578;28;20083;-86
2021/12/29 08:52:58;;;;;;;12.70;11.60;;;;;;;4.13;83.94;100694.69;4965097;28;20059;-87
2021/12/29 08:55:25;;;;;;;16.73;12.33;;;;;;;4.21;84.64;100689.78;4949225;29;20058;-85
2021/12/29 08:57:52;;;;;;;12.73;11.50;;;;;;;4.17;84.57;100680.38;4950170;28;20047;-85
2021/12/29 09:00:20;;;;;;;13.07;11.88;;;;;;;4.36;84.93;100707.25;4950175;28;20236;-86
2021/12/29 09:02:48;;;;;;;11.50;10.38;;;;;;;4.40;85.33;100718.44;4949889;28;20051;-86
2021/12/29 09:05:16;;;;;;;11.50;10.37;;;;;;;4.44;85.24;100723.41;4950349;28;20055;-86
2021/12/29 09:07:44;;;;;;;12.57;11.10;;;;;;;4.53;84.71;100734.28;4949252;28;20047;-86
2021/12/29 09:10:11;;;;;;;13.65;12.27;;;;;;;3.00;84.31;100445.91;4950058;29;20137;-87
2021/12/29 09:12:38;;;;;;;12.65;11.45;;;;;;;3.84;84.12;100592.22;4951506;28;20051;-86
2021/12/29 09:15:06;;;;;;;12.32;11.10;;;;;;;4.53;84.12;100718.50;4950080;29;20058;-87
2021/12/29 09:17:33;;;;;;;18.20;11.45;;;;;;;4.66;84.63;100753.59;4950262;28;20082;-87
2021/12/29 09:20:01;;;;;;;15.20;11.45;;;;;;;3.93;84.43;100615.28;4950634;29;20186;-85
2021/12/29 09:22:28;;;;;;;11.60;10.43;;;;;;;4.79;84.78;100754.56;4954003;29;20067;-85
2021/12/29 09:24:54;;;;;;;12.77;11.40;;;;;;;4.75;84.56;100742.53;4967236;28;20314;-87
2021/12/29 09:27:21;;;;;;;13.75;11.82;;;;;;;4.55;84.52;100716.63;4951007;28;20144;-86
2021/12/29 09:29:48;;;;;;;14.73;12.03;;;;;;;4.82;84.51;100749.09;4951449;28;20467;-87
2021/12/29 09:32:14;;;;;;;14.15;11.52;;;;;;;4.63;84.86;100693.31;4950030;29;20059;-87
2021/12/29 09:34:41;;;;;;;12.98;11.68;;;;;;;4.58;84.78;100679.63;4966007;28;20094;-87
2021/12/29 09:37:07;;;;;;;12.50;11.20;;;;;;;4.69;85.29;100682.44;4950251;29;20134;-85
2021/12/29 09:39:34;;;;;;;14.13;12.57;;;;;;;4.92;85.62;100712.53;4951513;28;20079;-86
2021/12/29 09:42:01;;;;;;;17.70;12.10;;;;;;;5.15;85.33;100734.75;4950567;28;20055;-86
2021/12/29 09:44:30;;;;;;;13.55;12.35;;;;;;;5.12;84.52;100701.59;4949253;29;20082;-86
2021/12/29 09:46:57;;;;;;;13.30;11.98;;;;;;;5.39;84.14;100713.91;4949380;29;20504;-85
2021/12/29 09:49:24;;;;;;;12.50;11.20;;;;;;;5.59;84.14;100724.91;4949381;29;20483;-85
2021/12/29 09:51:51;;;;;;;14.05;11.30;;;;;;;5.68;83.85;100734.81;4949162;29;20055;-86
2021/12/29 09:54:18;;;;;;;12.73;11.38;;;;;;;5.73;83.26;100730.94;4949452;29;20046;-85
2021/12/29 09:56:44;;;;;;;11.70;10.52;;;;;;;5.48;83.07;100675.56;4950317;28;20169;-87
2021/12/29 09:59:11;;;;;;;13.63;11.05;;;;;;;5.70;83.28;100717.97;4949266;29;20163;-87
2021/12/29 10:01:38;;;;;;;14.88;11.30;;;;;;;5.79;84.07;100716.50;4950751;29;20155;-86
2021/12/29 10:04:05;;;;;;;13.40;12.00;;;;;;;5.67;84.08;100697.09;4949434;29;20073;-89
2021/12/29 10:06:32;;;;;;;14.68;13.18;;;;;;;5.41;83.81;100643.53;4949231;29;20585;-85
2021/12/29 10:09:09;;;;;;;15.85;13.52;;;;;;;5.68;83.35;100688.28;4948640;29;20492;-87
2021/12/29 10:11:37;;;;;;;16.20;14.50;;;;;;;5.91;83.41;100735.94;4948978;29;20150;-88
2021/12/29 10:14:10;;;;;;;16.42;14.68;;;;;;;5.19;83.06;100585.38;4964719;28;20054;-87
2021/12/29 10:16:39;;;;;;;19.65;14.13;;;;;;;5.46;83.25;100615.13;4950581;28;20051;-87
2021/12/29 10:19:09;;;;;;;14.95;13.45;;;;;;;4.71;83.00;100501.72;4948527;28;20059;-86
2021/12/29 10:21:41;;;;;;;13.77;12.45;;;;;;;4.21;82.78;100419.97;4949009;29;20055;-84
2021/12/29 10:24:08;;;;;;;13.32;12.00;;;;;;;5.69;82.53;100632.00;4950143;28;20108;-84
2021/12/29 10:26:44;;;;;;;13.50;12.10;;;;;;;5.29;82.50;100549.59;4964543;28;20062;-85
2021/12/29 10:29:14;;;;;;;14.05;12.55;;;;;;;5.07;81.59;100531.78;4948653;29;20564;-87
2021/12/29 10:31:45;;;;;;;18.48;13.13;;;;;;;5.39;82.42;100578.75;4948382;29;20566;-87
2021/12/29 10:34:16;;;;;;;11.95;10.82;;;;;;;4.76;82.30;100469.84;4964384;28;20296;-85
2021/12/29 10:36:53;;;;;;;13.73;12.50;;;;;;;6.60;81.87;100745.25;4965979;28;20054;-86
2021/12/29 10:39:32;;;;;;;14.02;12.68;;;;;;;6.42;81.43;100710.44;4947973;29;20398;-85
2021/12/29 10:42:06;;;;;;;19.15;14.23;;;;;;;6.11;81.25;100695.91;4949855;28;20416;-86
2021/12/29 10:44:40;;;;;;;15.55;13.60;;;;;;;4.37;82.43;100493.41;4948706;29;20138;-85
2021/12/29 10:47:18;;;;;;;14.98;13.38;;;;;;;4.34;83.38;100501.47;4948542;29;20063;-86
2021/12/29 10:50:13;;;;;;;14.80;13.32;;;;;;;5.46;82.73;100624.78;4948738;29;20074;-86
2021/12/29 10:52:49;;;;;;;15.00;13.50;;;;;;;5.63;82.27;100607.84;4948437;29;20051;-84
2021/12/29 10:55:35;;;;;;;14.35;12.85;;;;;;;6.27;82.86;100724.72;4962931;28;20105;-86
2021/12/29 10:58:14;;;;;;;15.20;13.63;;;;;;;5.43;82.81;100583.72;4947476;29;20607;-88
2021/12/29 11:01:00;;;;;;;16.27;14.68;;;;;;;5.46;82.85;100558.97;4947793;28;20480;-86
2021/12/29 11:03:31;;;;;;;15.63;14.02;;;;;;;4.91;82.51;100456.50;4945670;29;20074;-86
2021/12/29 11:06:01;;;;;;;15.95;12.90;;;;;;;5.75;82.40;100575.41;4945956;29;20102;-86
2021/12/29 11:08:31;;;;;;;15.25;13.50;;;;;;;6.72;81.78;100719.78;4947328;28;20047;-85
2021/12/29 11:11:05;;;;;;;14.95;13.45;;;;;;;5.58;81.25;100526.53;4928305;29;20081;-85
2021/12/29 11:13:33;;;;;;;15.57;14.07;;;;;;;5.90;81.57;100555.09;4927440;29;20068;-85
2021/12/29 11:16:03;;;;;;;15.73;14.20;;;;;;;5.47;81.91;100479.06;4942587;29;20126;-86
2021/12/29 11:18:49;;;;;;;15.40;13.90;;;;;;;6.29;82.03;100598.06;4940161;29;20087;-87
2021/12/29 11:21:23;;;;;;;;;;;;;;;6.91;81.89;100695.56;4941960;29;20079;-89
2021/12/29 11:23:50;;;;;;;14.77;13.27;;;;;;;6.18;81.76;100565.38;4941599;28;19974;-89
2021/12/29 11:26:30;;;;;;;14.82;13.43;;;;;;;6.20;81.22;100563.47;4941477;29;20063;-87
2021/12/29 11:29:04;;;;;;;15.88;14.13;;;;;;;5.57;81.16;100470.38;4927565;29;20143;-87
2021/12/29 11:32:02;;;;;;;14.60;13.20;;;;;;;6.56;81.38;100642.72;4927921;29;20067;-87
2021/12/29 11:34:29;;;;;;;16.00;14.43;;;;;;;5.96;81.13;100544.13;4944144;29;20047;-87